Time;durP1;ratioP1;P1;durP2;ratioP2;P2;SDS_P1;SDS_P2;PMS_P1;PMS_P2;Temp;Humidity;BMP_temperature;BMP_pressure;BME280_temperature;BME280_humidity;BME280_pressure;Samples;Min_cycle;Max_cycle;Signal;HPM_P1;HPM_P2
2022/04/19 00:00:44;;;;;;;3.42;2.45;;;;;;;6.86;60.21;99404.38;4953006;28;20130;-66
2022/04/19 00:03:11;;;;;;;3.30;2.30;;;;;;;6.85;60.44;99405.31;4952956;28;20055;-67
2022/04/19 00:05:37;;;;;;;5.35;2.60;;;;;;;6.87;59.68;99397.41;4953620;28;20039;-67
2022/04/19 00:08:04;;;;;;;2.83;2.20;;;;;;;6.91;60.04;99401.56;4953575;28;20042;-67
2022/04/19 00:10:30;;;;;;;3.78;2.38;;;;;;;6.88;59.73;99399.09;4953147;28;20182;-67
2022/04/19 00:12:56;;;;;;;4.82;2.45;;;;;;;6.86;60.18;99395.66;4951485;28;20114;-68
2022/04/19 00:15:23;;;;;;;3.90;2.25;;;;;;;6.83;59.28;99393.19;4953614;28;20042;-67
2022/04/19 00:17:48;;;;;;;4.07;2.42;;;;;;;6.81;60.00;99393.22;4953760;28;20035;-68
2022/04/19 00:20:14;;;;;;;4.68;3.00;;;;;;;6.76;60.54;99389.09;4947433;28;20192;-67
2022/04/19 00:22:40;;;;;;;5.25;2.90;;;;;;;6.73;60.67;99394.47;4945099;28;20070;-66
2022/04/19 00:25:06;;;;;;;4.07;2.13;;;;;;;6.70;60.95;99384.13;4956424;28;20039;-67
2022/04/19 00:27:33;;;;;;;5.63;3.00;;;;;;;6.71;61.18;99384.03;4956002;28;20115;-67
2022/04/19 00:29:59;;;;;;;5.38;2.97;;;;;;;6.71;61.23;99388.44;4954388;28;20043;-68
2022/04/19 00:32:24;;;;;;;12.27;3.88;;;;;;;6.73;61.35;99390.09;4953241;28;20042;-67
2022/04/19 00:34:51;;;;;;;8.57;3.50;;;;;;;6.72;61.45;99392.75;4954355;28;20043;-66
2022/04/19 00:37:17;;;;;;;3.40;2.28;;;;;;;6.70;61.63;99384.13;4954629;28;20039;-65
2022/04/19 00:39:42;;;;;;;6.78;2.97;;;;;;;6.65;62.19;99384.31;4954620;28;20487;-66
2022/04/19 00:42:08;;;;;;;4.35;2.55;;;;;;;6.54;62.57;99382.09;4954059;28;20042;-67
2022/04/19 00:44:37;;;;;;;3.60;2.30;;;;;;;6.48;62.44;99382.34;4954379;28;20043;-68
2022/04/19 00:47:08;;;;;;;4.78;2.95;;;;;;;6.45;62.90;99378.06;4954390;28;20376;-67
2022/04/19 00:49:39;;;;;;;5.00;2.30;;;;;;;6.45;62.19;99378.06;4954499;28;20047;-67
2022/04/19 00:52:05;;;;;;;4.55;2.60;;;;;;;6.52;61.88;99370.84;4954480;28;20043;-67
2022/04/19 00:54:30;;;;;;;7.55;2.53;;;;;;;6.54;61.26;99374.22;4955541;28;20039;-67
2022/04/19 00:56:56;;;;;;;4.45;2.63;;;;;;;6.50;62.13;99377.03;4956286;28;20031;-68
2022/04/19 00:59:22;;;;;;;5.07;2.53;;;;;;;6.43;62.52;99368.56;4957444;28;20133;-66
2022/04/19 01:01:47;;;;;;;3.75;2.70;;;;;;;6.44;62.09;99371.13;4946256;28;20487;-67
2022/04/19 01:04:13;;;;;;;4.00;2.70;;;;;;;6.44;62.24;99370.28;4957518;28;20039;-65
2022/04/19 01:06:38;;;;;;;4.10;2.33;;;;;;;6.37;62.96;99366.19;4956823;28;20035;-67
2022/04/19 01:09:04;;;;;;;4.60;2.72;;;;;;;6.31;62.85;99361.19;4955534;28;20038;-66
2022/04/19 01:14:14;;;;;;;12.02;2.70;;;;;;;6.27;63.35;99359.59;4955048;28;20173;-67
2022/04/19 01:16:41;;;;;;;4.78;2.72;;;;;;;6.27;63.12;99370.91;4955403;28;20080;-66
2022/04/19 01:19:15;;;;;;;5.32;2.58;;;;;;;6.29;62.95;99366.47;4954953;28;20046;-67
2022/04/19 01:21:48;;;;;;;4.95;2.90;;;;;;;6.31;62.60;99362.03;4953973;28;20039;-66
2022/04/19 01:24:18;;;;;;;4.80;3.15;;;;;;;6.36;62.79;99364.50;4952733;28;20089;-67
2022/04/19 01:26:45;;;;;;;5.13;2.53;;;;;;;6.30;62.90;99355.13;4954736;28;20411;-67
2022/04/19 01:29:11;;;;;;;4.35;2.30;;;;;;;6.32;62.76;99360.28;4955180;28;20443;-66
2022/04/19 01:31:39;;;;;;;5.90;3.45;;;;;;;6.32;62.69;99357.66;4954599;28;20590;-66
2022/04/19 01:34:04;;;;;;;4.30;2.92;;;;;;;6.22;62.72;99362.38;4955189;28;20039;-67
2022/04/19 01:36:30;;;;;;;4.50;2.70;;;;;;;6.19;62.85;99355.50;4955196;28;20031;-67
2022/04/19 01:38:55;;;;;;;4.00;2.58;;;;;;;6.19;62.67;99357.28;4955498;28;20035;-66
2022/04/19 01:41:21;;;;;;;7.57;3.13;;;;;;;6.20;62.72;99358.97;4954391;28;20114;-67
2022/04/19 01:43:46;;;;;;;3.25;2.08;;;;;;;6.18;62.63;99364.28;4954294;28;20038;-67
2022/04/19 01:46:12;;;;;;;8.13;2.58;;;;;;;6.17;62.91;99361.72;4954859;28;20506;-66
2022/04/19 01:48:37;;;;;;;3.95;2.45;;;;;;;6.13;62.87;99355.75;4955143;28;20035;-66
2022/04/19 01:51:03;;;;;;;6.00;2.65;;;;;;;6.11;62.79;99354.13;4952014;28;20627;-67
2022/04/19 01:53:29;;;;;;;4.60;2.30;;;;;;;6.07;62.95;99353.34;4954736;28;20074;-67
2022/04/19 01:55:55;;;;;;;7.32;2.67;;;;;;;6.06;63.13;99353.44;4954660;28;20039;-66
2022/04/19 01:58:20;;;;;;;5.85;3.05;;;;;;;5.98;63.31;99353.69;4954525;28;20038;-67
2022/04/19 02:00:45;;;;;;;3.28;2.38;;;;;;;5.92;64.08;99359.13;4953727;28;20035;-67
2022/04/19 02:03:11;;;;;;;7.75;2.40;;;;;;;5.85;64.29;99352.44;4955442;28;20171;-67
2022/04/19 02:05:36;;;;;;;5.28;2.88;;;;;;;5.84;64.60;99354.19;4956370;28;20042;-67
2022/04/19 02:08:01;;;;;;;7.00;3.08;;;;;;;5.84;64.00;99355.97;4955241;28;20054;-66
2022/04/19 02:10:27;;;;;;;5.93;2.53;;;;;;;5.86;63.82;99354.13;4954207;28;20059;-65
2022/04/19 02:12:52;;;;;;;2.97;2.22;;;;;;;5.94;62.90;99352.97;4954780;28;20042;-67
2022/04/19 02:15:18;;;;;;;3.95;2.70;;;;;;;5.88;63.73;99347.06;4955345;28;20043;-67
2022/04/19 02:17:50;;;;;;;8.10;2.58;;;;;;;5.86;63.68;99349.75;4955042;28;20036;-67
2022/04/19 02:20:17;;;;;;;4.22;2.20;;;;;;;5.86;63.34;99346.28;4954958;28;20428;-66
2022/04/19 02:22:43;;;;;;;6.45;3.75;;;;;;;5.81;63.23;99344.69;4953436;28;20034;-67
2022/04/19 02:25:13;;;;;;;6.78;2.78;;;;;;;5.78;63.83;99349.16;4954765;28;20031;-68
2022/04/19 02:27:40;;;;;;;4.65;2.60;;;;;;;5.73;64.38;99351.94;4948635;28;20031;-67
2022/04/19 02:30:14;;;;;;;5.43;3.10;;;;;;;5.63;64.97;99347.97;4954551;28;20114;-67
2022/04/19 02:32:47;;;;;;;4.50;2.35;;;;;;;5.56;64.96;99339.50;4953184;28;20495;-67
2022/04/19 02:35:18;;;;;;;5.15;2.40;;;;;;;5.45;65.60;99346.03;4952739;28;20045;-66
2022/04/19 02:37:48;;;;;;;5.05;2.70;;;;;;;5.40;65.92;99345.34;4953641;28;20059;-68
2022/04/19 02:40:13;;;;;;;3.25;2.50;;;;;;;5.39;65.57;99347.09;4953119;28;20031;-67
2022/04/19 02:42:39;;;;;;;5.40;2.90;;;;;;;5.40;65.64;99350.56;4953044;28;20039;-65
2022/04/19 02:45:05;;;;;;;8.38;2.47;;;;;;;5.42;65.30;99349.59;4951412;28;20035;-67
2022/04/19 02:47:31;;;;;;;8.98;2.85;;;;;;;5.44;65.17;99350.41;4953319;28;20039;-67
2022/04/19 02:49:56;;;;;;;5.20;2.42;;;;;;;5.44;65.40;99341.69;4952548;28;20043;-67
2022/04/19 02:52:22;;;;;;;4.75;2.65;;;;;;;5.46;65.44;99335.50;4965541;28;20044;-66
2022/04/19 02:54:47;;;;;;;4.00;2.47;;;;;;;5.48;65.02;99336.31;4952508;28;20395;-66
2022/04/19 02:57:13;;;;;;;4.55;2.70;;;;;;;5.46;65.24;99340.72;4952885;28;20070;-66
2022/04/19 02:59:38;;;;;;;3.33;2.50;;;;;;;5.41;65.67;99344.41;4953671;28;20102;-66
2022/04/19 03:02:05;;;;;;;5.32;2.75;;;;;;;5.34;65.35;99338.53;4953656;28;20412;-66
2022/04/19 03:04:31;;;;;;;4.93;3.08;;;;;;;5.30;65.44;99337.81;4955316;28;20507;-67
2022/04/19 03:06:57;;;;;;;5.53;2.75;;;;;;;5.30;65.30;99332.59;4955506;28;20039;-66
2022/04/19 03:09:22;;;;;;;4.60;2.63;;;;;;;5.29;65.17;99330.91;4954831;28;20403;-66
2022/04/19 03:11:47;;;;;;;4.22;2.75;;;;;;;5.29;65.14;99330.91;4954734;28;20038;-66
2022/04/19 03:14:13;;;;;;;4.47;2.90;;;;;;;5.29;66.12;99327.41;4955532;28;20039;-66
2022/04/19 03:16:38;;;;;;;5.75;2.78;;;;;;;5.29;65.85;99330.00;4957488;28;20047;-66
2022/04/19 03:19:03;;;;;;;5.13;2.25;;;;;;;5.25;65.68;99321.44;4956373;28;20035;-66
2022/04/19 03:21:28;;;;;;;4.45;3.05;;;;;;;5.17;66.37;99326.09;4957244;28;20130;-66
2022/04/19 03:29:22;;;;;;;3.88;2.50;;;;;;;5.13;66.24;99332.31;4954078;28;20050;-67
2022/04/19 03:31:47;;;;;;;3.88;2.78;;;;;;;5.05;66.99;99331.72;4953600;28;20035;-66
2022/04/19 03:34:13;;;;;;;4.82;2.83;;;;;;;4.99;66.93;99329.31;4954133;28;20499;-66
2022/04/19 03:36:38;;;;;;;5.40;2.65;;;;;;;5.00;66.99;99323.19;4954686;28;20035;-66
2022/04/19 03:39:03;;;;;;;9.82;2.72;;;;;;;5.03;66.43;99320.47;4953572;28;20055;-65
2022/04/19 03:41:29;;;;;;;4.90;2.33;;;;;;;5.03;66.43;99320.47;4953477;28;20039;-66
2022/04/19 03:43:55;;;;;;;4.85;2.35;;;;;;;5.04;66.37;99320.41;4953906;28;20031;-67
2022/04/19 03:46:21;;;;;;;4.53;2.80;;;;;;;5.03;66.29;99316.09;4953204;28;20097;-67
2022/04/19 03:48:46;;;;;;;4.85;2.70;;;;;;;5.03;66.24;99315.25;4953720;28;20043;-66
2022/04/19 03:51:11;;;;;;;3.85;2.42;;;;;;;4.97;66.21;99312.84;4953415;28;20097;-65
2022/04/19 03:53:37;;;;;;;3.80;2.55;;;;;;;4.94;66.89;99306.81;4953890;28;20039;-66
2022/04/19 03:56:05;;;;;;;4.15;2.50;;;;;;;4.94;66.96;99309.41;4953639;28;20039;-66
2022/04/19 03:58:32;;;;;;;3.97;2.70;;;;;;;4.90;66.61;99313.06;4953323;28;20035;-67
2022/04/19 04:00:58;;;;;;;6.68;3.15;;;;;;;4.85;67.60;99314.09;4952764;28;20649;-66
2022/04/19 04:03:24;;;;;;;4.70;2.28;;;;;;;4.83;68.06;99308.09;4953753;28;20039;-66
2022/04/19 04:05:49;;;;;;;5.03;2.50;;;;;;;4.86;67.68;99311.44;4954877;28;20122;-65
2022/04/19 04:08:15;;;;;;;6.72;4.35;;;;;;;4.85;67.19;99317.59;4954519;28;20064;-66
2022/04/19 04:10:41;;;;;;;6.72;2.90;;;;;;;4.85;66.96;99312.38;4952911;28;20043;-67
2022/04/19 04:13:06;;;;;;;3.65;2.55;;;;;;;4.92;67.29;99308.66;4953593;28;20046;-64
2022/04/19 04:15:31;;;;;;;5.15;2.90;;;;;;;4.97;66.81;99311.06;4954204;28;20801;-65
2022/04/19 04:17:57;;;;;;;3.33;2.50;;;;;;;4.95;67.27;99312.91;4954515;28;20451;-65
2022/04/19 04:20:22;;;;;;;5.28;2.70;;;;;;;4.93;66.97;99312.94;4954406;28;20036;-65
2022/04/19 04:22:47;;;;;;;6.32;3.40;;;;;;;4.96;66.93;99306.75;4954107;28;20027;-65
2022/04/19 04:25:13;;;;;;;6.20;3.25;;;;;;;4.91;67.24;99312.13;4954441;28;20031;-66
2022/04/19 04:27:38;;;;;;;5.45;3.00;;;;;;;4.86;67.47;99311.44;4953501;28;20042;-67
2022/04/19 04:30:06;;;;;;;4.80;2.70;;;;;;;4.86;67.53;99324.50;4952778;28;20055;-66
2022/04/19 04:32:31;;;;;;;6.95;3.13;;;;;;;4.93;66.50;99328.63;4967201;28;20047;-67
2022/04/19 04:34:57;;;;;;;6.63;3.10;;;;;;;4.91;67.17;99330.44;4953204;28;20517;-67
2022/04/19 04:37:22;;;;;;;3.78;2.90;;;;;;;4.89;67.40;99326.16;4953154;28;20387;-67
2022/04/19 04:39:48;;;;;;;4.45;2.65;;;;;;;4.90;67.59;99325.28;4952832;28;20448;-66
2022/04/19 04:42:13;;;;;;;5.53;3.20;;;;;;;4.85;67.73;99325.41;4951018;28;20590;-67
2022/04/19 04:44:38;;;;;;;4.63;2.85;;;;;;;4.75;68.08;99326.63;4953160;28;20118;-66
2022/04/19 04:49:48;;;;;;;4.63;2.70;;;;;;;4.72;68.37;99322.34;4953538;28;20074;-67
2022/04/19 04:52:15;;;;;;;5.65;3.13;;;;;;;4.70;68.53;99331.13;4952246;28;20051;-66
2022/04/19 04:54:42;;;;;;;4.68;3.45;;;;;;;4.71;68.29;99330.25;4952995;28;20027;-67
2022/04/19 04:57:09;;;;;;;5.10;3.30;;;;;;;4.73;68.30;99329.28;4952655;28;20039;-68
2022/04/19 04:59:35;;;;;;;5.53;2.50;;;;;;;4.83;67.64;99336.81;4952408;28;20539;-67
2022/04/19 05:02:01;;;;;;;8.18;3.50;;;;;;;4.89;67.46;99327.00;4951225;28;20043;-66
2022/04/19 05:04:27;;;;;;;7.70;3.42;;;;;;;4.99;67.36;99332.78;4952604;28;20045;-67
2022/04/19 05:06:53;;;;;;;4.50;2.88;;;;;;;5.09;66.78;99334.16;4952608;28;20031;-67
2022/04/19 05:09:18;;;;;;;5.13;2.63;;;;;;;5.24;66.03;99330.19;4953125;28;20476;-67
2022/04/19 05:11:50;;;;;;;6.57;2.65;;;;;;;5.37;65.57;99325.38;4952299;28;20129;-68
2022/04/19 05:14:16;;;;;;;6.05;2.95;;;;;;;5.52;65.35;99324.00;4952371;28;20053;-69
2022/04/19 05:16:42;;;;;;;5.20;3.38;;;;;;;5.70;64.25;99327.69;4952700;28;20544;-68
2022/04/19 05:19:08;;;;;;;11.35;3.30;;;;;;;5.80;64.59;99329.91;4952403;28;20069;-68
2022/04/19 05:21:33;;;;;;;8.73;3.17;;;;;;;5.86;64.71;99326.22;4951304;28;20041;-69
2022/04/19 05:23:58;;;;;;;8.95;3.55;;;;;;;6.02;64.24;99332.59;4952846;28;20118;-70
2022/04/19 05:26:28;;;;;;;6.53;3.13;;;;;;;6.34;63.83;99329.66;4955289;28;20046;-69
2022/04/19 05:28:54;;;;;;;9.80;3.30;;;;;;;6.68;62.65;99331.78;4955730;28;20035;-69
2022/04/19 05:31:20;;;;;;;5.38;3.03;;;;;;;6.92;61.76;99329.94;4953919;28;20522;-63
2022/04/19 05:33:45;;;;;;;5.35;2.85;;;;;;;7.14;61.23;99329.00;4953123;28;20039;-62
2022/04/19 05:36:12;;;;;;;7.18;3.67;;;;;;;7.23;60.74;99329.47;4947182;28;20047;-60
2022/04/19 05:38:37;;;;;;;6.53;4.13;;;;;;;7.36;60.19;99332.44;4952143;28;20118;-63
2022/04/19 05:41:03;;;;;;;6.57;3.70;;;;;;;7.42;59.86;99336.56;4950587;28;20631;-68
2022/04/19 05:43:28;;;;;;;8.75;3.75;;;;;;;7.47;60.06;99335.44;4951155;28;20118;-68
2022/04/19 05:45:54;;;;;;;5.97;3.28;;;;;;;7.48;59.73;99333.66;4951080;28;20039;-68
2022/04/19 05:48:19;;;;;;;5.45;3.47;;;;;;;7.50;59.03;99329.19;4935031;28;20403;-66
2022/04/19 05:50:44;;;;;;;4.97;2.95;;;;;;;7.53;59.42;99332.56;4954512;28;20095;-66
2022/04/19 05:53:11;;;;;;;5.63;3.13;;;;;;;7.57;59.89;99332.41;4955104;28;20483;-65
2022/04/19 05:55:36;;;;;;;6.22;3.40;;;;;;;7.81;59.75;99333.94;4955007;28;20094;-66
2022/04/19 05:58:01;;;;;;;3.92;2.80;;;;;;;8.07;58.85;99335.38;4952650;28;20039;-65
2022/04/19 06:00:27;;;;;;;6.45;3.50;;;;;;;8.30;58.59;99329.03;4950747;28;20042;-67
2022/04/19 06:05:36;;;;;;;6.38;3.60;;;;;;;8.75;56.87;99340.91;4954468;28;20037;-65
2022/04/19 06:08:01;;;;;;;6.88;4.10;;;;;;;9.03;56.66;99340.41;4955229;28;20035;-64
2022/04/19 06:10:27;;;;;;;4.97;3.45;;;;;;;9.30;55.73;99337.28;4952322;28;20127;-66
2022/04/19 06:12:53;;;;;;;7.75;3.85;;;;;;;9.61;54.61;99341.84;4982198;28;20090;-66
2022/04/19 06:15:18;;;;;;;6.93;4.38;;;;;;;9.94;53.55;99340.13;4951288;28;20036;-66
2022/04/19 06:17:43;;;;;;;12.10;3.75;;;;;;;10.20;52.81;99333.44;4951360;28;20062;-66
2022/04/19 06:20:10;;;;;;;10.50;3.78;;;;;;;10.39;52.66;99338.59;4951265;28;20054;-66
2022/04/19 06:22:35;;;;;;;15.93;3.63;;;;;;;10.67;51.29;99341.34;4951314;28;20046;-65
2022/04/19 06:25:01;;;;;;;7.88;3.28;;;;;;;10.86;50.81;99343.81;4953484;28;20044;-65
2022/04/19 06:27:27;;;;;;;4.93;3.53;;;;;;;11.22;50.26;99342.56;4951423;28;20045;-65
2022/04/19 06:29:52;;;;;;;9.88;3.88;;;;;;;11.57;49.08;99339.66;4950769;28;20142;-65
2022/04/19 06:32:22;;;;;;;7.82;3.42;;;;;;;12.00;47.84;99342.31;4950492;28;20039;-65
2022/04/19 06:34:47;;;;;;;7.45;3.90;;;;;;;12.40;46.16;99338.03;4951048;28;20046;-65
2022/04/19 06:37:12;;;;;;;6.53;3.70;;;;;;;12.82;44.34;99338.84;4953574;28;20118;-65
2022/04/19 06:39:38;;;;;;;8.00;3.58;;;;;;;13.35;43.86;99340.66;4955330;28;20042;-65
2022/04/19 06:42:03;;;;;;;7.07;3.55;;;;;;;13.76;41.51;99340.47;4954392;28;20078;-66
2022/04/19 06:44:29;;;;;;;10.98;4.68;;;;;;;14.15;40.77;99336.81;4955035;28;20464;-66
2022/04/19 06:46:54;;;;;;;5.90;3.67;;;;;;;14.55;40.28;99343.75;4954792;28;20038;-65
2022/04/19 06:49:19;;;;;;;9.13;4.32;;;;;;;14.90;38.96;99335.00;4954969;28;20046;-64
2022/04/19 06:51:45;;;;;;;7.18;4.38;;;;;;;15.09;38.15;99335.31;4954289;28;20330;-67
2022/04/19 06:54:12;;;;;;;13.25;5.47;;;;;;;15.39;38.11;99337.44;4955262;28;20502;-66
2022/04/19 06:56:38;;;;;;;12.48;5.50;;;;;;;15.72;36.87;99337.66;4954949;28;20119;-65
2022/04/19 06:59:03;;;;;;;7.25;5.65;;;;;;;16.08;35.92;99333.94;4954863;28;20046;-64
2022/04/19 07:01:29;;;;;;;16.77;7.18;;;;;;;16.17;35.62;99340.31;4953287;28;20400;-65
2022/04/19 07:03:54;;;;;;;15.30;6.38;;;;;;;16.10;35.20;99335.50;4954726;28;20035;-65
2022/04/19 07:06:20;;;;;;;9.35;5.68;;;;;;;16.13;35.38;99346.88;4954647;28;20043;-66
2022/04/19 07:08:45;;;;;;;11.55;6.47;;;;;;;16.26;35.43;99343.09;4954805;28;20039;-65
2022/04/19 07:11:12;;;;;;;10.30;5.88;;;;;;;16.59;34.92;99341.34;4954316;28;20039;-66
2022/04/19 07:13:38;;;;;;;33.40;8.60;;;;;;;16.69;34.65;99341.44;4954505;28;20455;-64
2022/04/19 07:16:05;;;;;;;14.32;6.28;;;;;;;17.08;33.43;99341.81;4954226;28;20042;-65
2022/04/19 07:18:31;;;;;;;33.80;7.57;;;;;;;17.13;33.79;99339.59;4954187;28;20464;-66
2022/04/19 07:26:37;;;;;;;13.45;5.20;;;;;;;17.37;32.81;99350.03;4942264;28;20182;-65
2022/04/19 07:29:13;;;;;;;14.35;6.57;;;;;;;17.62;32.07;99342.59;4942403;28;20476;-66
2022/04/19 07:31:40;;;;;;;21.42;6.70;;;;;;;17.87;31.36;99339.56;4938314;28;20040;-65
2022/04/19 07:34:06;;;;;;;10.80;6.40;;;;;;;17.81;31.77;99348.06;4935858;28;20040;-66
2022/04/19 07:36:33;;;;;;;17.83;5.93;;;;;;;17.87;31.85;99349.34;4935889;28;20067;-66
2022/04/19 07:38:59;;;;;;;9.02;5.25;;;;;;;17.75;31.24;99352.09;4935593;28;20135;-65
2022/04/19 07:41:25;;;;;;;6.55;4.90;;;;;;;17.64;30.67;99349.50;4935083;28;20032;-65
2022/04/19 07:43:51;;;;;;;11.48;5.60;;;;;;;17.71;30.69;99366.66;4935753;28;20032;-65
2022/04/19 07:46:18;;;;;;;10.25;6.30;;;;;;;17.72;30.46;99357.69;4935169;28;20054;-66
2022/04/19 07:48:44;;;;;;;9.93;5.53;;;;;;;17.88;30.94;99348.41;4934307;28;20040;-65
2022/04/19 07:51:10;;;;;;;12.00;5.72;;;;;;;18.19;30.29;99342.09;4934169;28;20039;-65
2022/04/19 07:53:35;;;;;;;11.55;5.03;;;;;;;18.61;30.42;99343.75;4947396;28;20031;-66
2022/04/19 07:56:01;;;;;;;10.77;4.63;;;;;;;18.83;29.32;99345.34;4954128;28;20038;-65
2022/04/19 07:58:26;;;;;;;6.78;4.18;;;;;;;18.48;29.81;99351.97;4953551;28;20043;-64
2022/04/19 08:00:52;;;;;;;12.07;5.05;;;;;;;18.35;29.94;99349.56;4953473;28;20046;-65
2022/04/19 08:03:17;;;;;;;7.47;4.65;;;;;;;18.36;29.87;99345.94;4952945;28;20031;-71
2022/04/19 08:05:43;;;;;;;8.68;4.63;;;;;;;18.38;30.21;99345.78;4954312;28;20046;-66
2022/04/19 08:08:08;;;;;;;5.38;3.92;;;;;;;18.24;29.97;99347.00;4953856;28;20506;-66
2022/04/19 08:10:33;;;;;;;6.05;4.40;;;;;;;18.61;30.10;99339.25;4953447;28;20467;-64
2022/04/19 08:12:59;;;;;;;9.52;4.38;;;;;;;18.89;29.65;99336.75;4953393;28;20035;-65
2022/04/19 08:15:24;;;;;;;7.70;5.28;;;;;;;18.96;29.83;99345.06;4953186;28;20121;-65
2022/04/19 08:17:50;;;;;;;11.50;4.47;;;;;;;18.97;29.59;99336.91;4952915;28;20031;-65
2022/04/19 08:20:16;;;;;;;9.38;4.97;;;;;;;18.75;29.61;99339.81;4952607;28;20114;-64
2022/04/19 08:22:42;;;;;;;8.75;4.03;;;;;;;18.59;29.90;99338.53;4952103;28;20042;-65
2022/04/19 08:25:10;;;;;;;7.60;5.65;;;;;;;18.67;30.07;99335.16;4953384;28;20045;-65
2022/04/19 08:27:41;;;;;;;9.38;4.88;;;;;;;18.83;29.95;99337.34;4953224;28;20097;-64
2022/04/19 08:30:08;;;;;;;8.95;5.55;;;;;;;18.94;29.91;99342.53;4953022;28;20107;-65
2022/04/19 08:32:33;;;;;;;8.85;5.68;;;;;;;19.11;29.76;99338.31;4952367;28;20051;-65
2022/04/19 08:34:59;;;;;;;6.15;3.85;;;;;;;19.52;29.30;99333.63;4953141;28;20504;-64
2022/04/19 08:37:31;;;;;;;17.15;5.25;;;;;;;19.71;28.45;99333.63;4951552;28;20055;-64
2022/04/19 08:39:57;;;;;;;10.82;6.05;;;;;;;19.44;28.33;99339.72;4956225;28;20032;-65
2022/04/19 08:42:22;;;;;;;9.73;5.15;;;;;;;19.78;28.02;99341.06;4956896;28;20054;-65
2022/04/19 08:44:48;;;;;;;9.32;5.15;;;;;;;19.68;27.77;99333.06;4953363;28;20063;-65
2022/04/19 08:47:14;;;;;;;9.05;5.80;;;;;;;20.09;27.75;99338.97;4953179;28;20035;-65
2022/04/19 08:49:41;;;;;;;20.05;6.95;;;;;;;20.20;27.73;99337.94;4951984;28;20054;-65
2022/04/19 08:52:08;;;;;;;8.13;5.57;;;;;;;20.02;28.01;99329.84;4952033;28;20094;-65
2022/04/19 08:57:30;;;;;;;7.93;5.63;;;;;;;20.23;27.84;99332.28;4953856;28;20090;-66
2022/04/19 08:59:56;;;;;;;11.63;6.13;;;;;;;20.54;27.62;99335.50;4953471;28;20086;-65
2022/04/19 09:02:23;;;;;;;8.68;6.28;;;;;;;20.36;27.92;99335.47;4952284;28;20027;-65
2022/04/19 09:04:50;;;;;;;13.20;6.05;;;;;;;20.53;27.87;99325.78;4952862;28;20032;-65
2022/04/19 09:07:17;;;;;;;14.75;6.82;;;;;;;20.69;27.54;99325.97;4952618;28;20039;-65
2022/04/19 09:09:43;;;;;;;11.55;6.07;;;;;;;20.05;28.51;99329.56;4953093;28;20536;-65
2022/04/19 09:12:10;;;;;;;9.73;6.28;;;;;;;19.99;29.02;99325.66;4952135;28;20043;-65
2022/04/19 09:14:56;;;;;;;10.55;6.32;;;;;;;20.38;28.17;99331.66;4953638;28;20035;-65
2022/04/19 09:17:33;;;;;;;15.75;6.43;;;;;;;20.57;28.09;99319.16;4953070;28;20031;-65
2022/04/19 09:20:09;;;;;;;11.38;7.40;;;;;;;20.71;27.34;99313.28;4951874;28;20031;-65
2022/04/19 09:22:36;;;;;;;19.38;7.97;;;;;;;20.49;27.48;99317.19;4951278;28;20047;-65
2022/04/19 09:25:26;;;;;;;14.27;7.20;;;;;;;20.94;26.84;99313.66;4952003;28;20467;-64
2022/04/19 09:27:54;;;;;;;12.00;6.43;;;;;;;21.29;26.68;99320.00;4950616;28;20027;-65
2022/04/19 09:30:21;;;;;;;10.63;7.40;;;;;;;21.66;25.64;99318.97;4951361;28;20118;-66
2022/04/19 09:32:59;;;;;;;14.52;8.73;;;;;;;22.14;24.88;99316.69;4951327;28;20039;-65
2022/04/19 09:35:32;;;;;;;11.77;7.70;;;;;;;22.77;24.57;99310.84;4951783;28;20039;-66
2022/04/19 09:37:57;;;;;;;14.90;7.15;;;;;;;23.45;23.20;99311.56;4951949;28;20084;-65
2022/04/19 09:40:29;;;;;;;17.38;8.90;;;;;;;23.16;22.94;99299.50;4951636;28;20537;-65
2022/04/19 09:42:55;;;;;;;19.90;8.27;;;;;;;22.82;23.38;99300.44;4951732;28;20043;-65
2022/04/19 09:45:22;;;;;;;13.00;7.55;;;;;;;23.56;22.91;99295.09;4951953;28;20778;-65
2022/04/19 09:47:51;;;;;;;10.45;7.30;;;;;;;23.85;22.71;99299.91;4951832;28;20508;-66
2022/04/19 09:50:16;;;;;;;13.98;8.30;;;;;;;23.75;22.14;99293.88;4949890;28;20039;-66
2022/04/19 09:52:48;;;;;;;16.10;8.10;;;;;;;24.49;21.55;99299.84;4951774;28;20511;-64
2022/04/19 09:55:15;;;;;;;12.90;7.57;;;;;;;24.25;21.52;99294.56;4951813;28;20035;-65
2022/04/19 09:57:41;;;;;;;12.18;7.32;;;;;;;24.49;21.84;99299.84;4951880;28;20063;-65
2022/04/19 10:00:12;;;;;;;13.65;7.18;;;;;;;24.29;21.66;99299.38;4951401;28;20036;-65
2022/04/19 10:08:14;;;;;;;17.00;8.07;;;;;;;25.15;20.72;99293.97;4948936;28;20022;-64
2022/04/19 10:10:41;;;;;;;18.55;6.88;;;;;;;25.02;20.69;99297.28;4950612;28;20439;-66
2022/04/19 10:13:07;;;;;;;13.00;7.13;;;;;;;25.27;20.20;99300.63;4950896;28;20376;-66
2022/04/19 10:15:36;;;;;;;8.45;6.53;;;;;;;25.00;20.65;99291.22;4949724;28;20039;-65
2022/04/19 10:18:06;;;;;;;9.45;6.57;;;;;;;24.75;20.90;99293.28;4951151;28;20062;-65
2022/04/19 10:20:36;;;;;;;11.30;5.95;;;;;;;25.03;20.28;99299.81;4950855;28;20114;-64
2022/04/19 10:23:08;;;;;;;11.85;6.50;;;;;;;24.12;20.63;99293.25;4951537;28;20058;-66
2022/04/19 10:25:43;;;;;;;13.35;6.82;;;;;;;23.21;21.89;99290.91;4952623;28;20102;-64
2022/04/19 10:28:08;;;;;;;11.18;6.25;;;;;;;23.56;22.00;99285.16;4951138;28;20046;-65
2022/04/19 10:30:36;;;;;;;11.82;6.70;;;;;;;24.07;21.73;99292.09;4950395;28;20055;-65
2022/04/19 10:33:21;;;;;;;16.92;7.95;;;;;;;24.04;22.27;99290.56;4950755;28;20040;-65
2022/04/19 10:36:09;;;;;;;10.77;7.32;;;;;;;23.42;22.21;99288.53;4950783;28;20036;-64
2022/04/19 10:38:34;;;;;;;8.98;6.25;;;;;;;23.75;23.11;99285.78;4951020;28;20049;-64
2022/04/19 10:40:59;;;;;;;15.90;6.75;;;;;;;23.88;23.47;99298.75;4952372;28;20035;-64
2022/04/19 10:43:27;;;;;;;16.80;10.30;;;;;;;24.09;23.23;99287.38;4954345;28;20047;-64
2022/04/19 10:45:53;;;;;;;11.88;7.80;;;;;;;24.19;23.07;99286.16;4951303;28;20039;-65
2022/04/19 10:48:18;;;;;;;15.52;8.07;;;;;;;23.86;23.88;99276.53;4951252;28;20404;-64
2022/04/19 10:50:47;;;;;;;11.43;7.63;;;;;;;23.39;24.47;99283.50;4951208;28;20408;-64
2022/04/19 10:53:13;;;;;;;12.00;7.50;;;;;;;22.80;24.35;99277.44;4954206;28;20038;-66
2022/04/19 10:55:57;;;;;;;18.48;7.55;;;;;;;22.39;24.70;99275.50;4954684;28;20094;-65
2022/04/19 10:58:38;;;;;;;11.10;6.80;;;;;;;21.57;25.93;99279.66;4953891;28;20066;-65
2022/04/19 11:01:05;;;;;;;12.40;7.53;;;;;;;21.40;26.23;99284.91;4950737;28;20055;-66
2022/04/19 11:03:34;;;;;;;11.43;7.35;;;;;;;21.18;26.86;99277.34;4950385;28;20128;-65
2022/04/19 11:06:04;;;;;;;13.88;7.90;;;;;;;20.95;27.26;99274.31;4950923;28;20050;-65
2022/04/19 11:08:37;;;;;;;14.65;7.38;;;;;;;20.81;27.19;99273.03;4951075;28;20035;-65
2022/04/19 11:11:02;;;;;;;13.95;7.47;;;;;;;20.75;27.18;99270.97;4950191;28;20042;-66
2022/04/19 11:13:27;;;;;;;8.93;6.47;;;;;;;20.57;27.54;99273.63;4952610;28;20415;-64
2022/04/19 11:16:08;;;;;;;15.68;7.93;;;;;;;20.46;27.92;99266.63;4952285;28;20488;-66
2022/04/19 11:18:33;;;;;;;10.90;6.50;;;;;;;20.25;28.50;99266.91;4934248;28;20036;-65
2022/04/19 11:21:01;;;;;;;10.90;7.57;;;;;;;20.14;27.13;99267.13;4931462;28;20043;-64
2022/04/19 11:23:28;;;;;;;10.32;7.10;;;;;;;19.82;27.34;99256.88;4932200;28;20625;-65
2022/04/19 11:25:55;;;;;;;12.77;7.47;;;;;;;19.79;27.60;99265.16;4935226;29;20036;-66
2022/04/19 11:28:25;;;;;;;10.95;7.88;;;;;;;19.86;27.75;99268.94;4935227;29;20043;-65
2022/04/19 11:30:56;;;;;;;16.65;8.65;;;;;;;19.80;27.57;99261.50;4949207;28;20043;-65
2022/04/19 11:33:24;;;;;;;17.73;8.23;;;;;;;19.74;28.66;99260.28;4937404;29;20040;-65
2022/04/19 11:36:01;;;;;;;14.90;8.15;;;;;;;19.66;27.69;99260.13;4938568;28;20400;-67
2022/04/19 11:38:30;;;;;;;12.40;8.57;;;;;;;19.57;27.34;99256.50;4935347;29;20124;-66
2022/04/19 11:46:44;;;;;;;18.13;8.80;;;;;;;19.53;28.43;99261.28;4938776;29;19922;-65
2022/04/19 11:49:10;;;;;;;26.13;10.13;;;;;;;19.22;28.66;99260.69;4938383;28;20123;-66
2022/04/19 11:51:37;;;;;;;19.33;9.95;;;;;;;19.03;28.58;99263.38;4937734;28;20044;-65
2022/04/19 11:54:04;;;;;;;13.75;8.73;;;;;;;19.00;28.63;99256.50;4937797;29;20036;-64
2022/04/19 11:56:30;;;;;;;19.48;10.10;;;;;;;19.21;28.52;99263.50;4937696;29;20048;-65
2022/04/19 11:59:00;;;;;;;13.30;7.88;;;;;;;19.24;28.24;99257.84;4937611;29;20040;-65
2022/04/19 12:01:27;;;;;;;13.50;9.25;;;;;;;19.16;27.78;99253.22;4934888;29;20039;-64
2022/04/19 12:03:53;;;;;;;18.58;9.15;;;;;;;19.19;28.35;99255.59;4934243;29;20078;-65
2022/04/19 12:06:20;;;;;;;12.98;8.90;;;;;;;18.88;28.59;99246.94;4934492;29;20123;-65